sensor_id;sensor_type;location;lat;lon;timestamp;P1;durP1;ratioP1;P2;durP2;ratioP2
82374;SDS011;72005;50.496;15.798;2023-10-09T00:00:54;6.20;;;3.03;;
82374;SDS011;72005;50.496;15.798;2023-10-09T00:03:44;3.92;;;2.70;;
82374;SDS011;72005;50.496;15.798;2023-10-09T00:06:11;5.63;;;2.72;;
82374;SDS011;72005;50.496;15.798;2023-10-09T00:08:39;4.93;;;2.83;;
82374;SDS011;72005;50.496;15.798;2023-10-09T00:11:10;4.28;;;2.95;;
82374;SDS011;72005;50.496;15.798;2023-10-09T00:13:41;3.88;;;2.35;;
82374;SDS011;72005;50.496;15.798;2023-10-09T00:16:37;6.78;;;2.65;;
82374;SDS011;72005;50.496;15.798;2023-10-09T00:19:12;4.28;;;2.47;;
82374;SDS011;72005;50.496;15.798;2023-10-09T00:21:59;3.63;;;2.65;;
82374;SDS011;72005;50.496;15.798;2023-10-09T00:24:32;5.57;;;2.85;;
82374;SDS011;72005;50.496;15.798;2023-10-09T00:26:59;3.60;;;2.50;;
82374;SDS011;72005;50.496;15.798;2023-10-09T00:29:38;3.95;;;2.60;;
82374;SDS011;72005;50.496;15.798;2023-10-09T00:32:14;5.03;;;2.80;;
82374;SDS011;72005;50.496;15.798;2023-10-09T00:34:48;4.38;;;2.90;;
82374;SDS011;72005;50.496;15.798;2023-10-09T00:37:16;4.55;;;2.90;;
82374;SDS011;72005;50.496;15.798;2023-10-09T00:39:43;3.47;;;2.60;;
82374;SDS011;72005;50.496;15.798;2023-10-09T00:42:12;3.90;;;2.63;;
82374;SDS011;72005;50.496;15.798;2023-10-09T00:44:39;5.68;;;2.75;;
82374;SDS011;72005;50.496;15.798;2023-10-09T00:47:13;3.83;;;2.55;;
82374;SDS011;72005;50.496;15.798;2023-10-09T00:52:27;5.80;;;3.05;;
82374;SDS011;72005;50.496;15.798;2023-10-09T00:55:02;4.40;;;2.63;;
82374;SDS011;72005;50.496;15.798;2023-10-09T00:57:35;5.05;;;2.72;;
82374;SDS011;72005;50.496;15.798;2023-10-09T01:00:03;4.75;;;2.95;;
82374;SDS011;72005;50.496;15.798;2023-10-09T01:02:37;5.53;;;3.35;;
82374;SDS011;72005;50.496;15.798;2023-10-09T01:05:09;6.57;;;3.45;;
82374;SDS011;72005;50.496;15.798;2023-10-09T01:07:45;8.43;;;3.50;;
82374;SDS011;72005;50.496;15.798;2023-10-09T01:10:12;6.20;;;3.45;;
82374;SDS011;72005;50.496;15.798;2023-10-09T01:12:42;5.03;;;2.95;;
82374;SDS011;72005;50.496;15.798;2023-10-09T01:15:10;6.47;;;3.72;;
82374;SDS011;72005;50.496;15.798;2023-10-09T01:17:44;8.15;;;3.80;;
82374;SDS011;72005;50.496;15.798;2023-10-09T01:20:11;4.68;;;2.85;;
82374;SDS011;72005;50.496;15.798;2023-10-09T01:22:43;4.82;;;3.10;;
82374;SDS011;72005;50.496;15.798;2023-10-09T01:25:09;6.43;;;2.80;;
82374;SDS011;72005;50.496;15.798;2023-10-09T01:27:35;4.22;;;2.80;;
82374;SDS011;72005;50.496;15.798;2023-10-09T01:30:05;3.13;;;2.42;;
82374;SDS011;72005;50.496;15.798;2023-10-09T01:32:32;4.20;;;2.83;;
82374;SDS011;72005;50.496;15.798;2023-10-09T01:35:00;3.97;;;2.30;;
82374;SDS011;72005;50.496;15.798;2023-10-09T01:37:25;6.25;;;2.95;;
82374;SDS011;72005;50.496;15.798;2023-10-09T01:39:52;4.45;;;2.60;;
82374;SDS011;72005;50.496;15.798;2023-10-09T01:42:20;4.20;;;2.53;;
82374;SDS011;72005;50.496;15.798;2023-10-09T01:45:09;7.40;;;2.83;;
82374;SDS011;72005;50.496;15.798;2023-10-09T01:47:52;5.28;;;2.83;;
82374;SDS011;72005;50.496;15.798;2023-10-09T01:50:22;10.13;;;3.08;;
82374;SDS011;72005;50.496;15.798;2023-10-09T01:52:50;4.13;;;2.70;;
82374;SDS011;72005;50.496;15.798;2023-10-09T01:55:19;3.70;;;2.63;;
82374;SDS011;72005;50.496;15.798;2023-10-09T01:58:14;6.30;;;2.90;;
82374;SDS011;72005;50.496;15.798;2023-10-09T02:00:48;6.28;;;3.58;;
82374;SDS011;72005;50.496;15.798;2023-10-09T02:03:20;7.72;;;3.83;;
82374;SDS011;72005;50.496;15.798;2023-10-09T02:05:49;4.75;;;3.22;;
82374;SDS011;72005;50.496;15.798;2023-10-09T02:08:17;6.22;;;3.30;;
82374;SDS011;72005;50.496;15.798;2023-10-09T02:10:47;4.75;;;3.00;;
82374;SDS011;72005;50.496;15.798;2023-10-09T02:13:13;4.45;;;3.33;;
82374;SDS011;72005;50.496;15.798;2023-10-09T02:15:42;5.72;;;3.30;;
82374;SDS011;72005;50.496;15.798;2023-10-09T02:18:13;5.40;;;2.95;;
82374;SDS011;72005;50.496;15.798;2023-10-09T02:20:49;6.32;;;3.80;;
82374;SDS011;72005;50.496;15.798;2023-10-09T02:23:26;4.68;;;2.55;;
82374;SDS011;72005;50.496;15.798;2023-10-09T02:26:04;3.42;;;2.80;;
82374;SDS011;72005;50.496;15.798;2023-10-09T02:28:32;4.82;;;2.90;;
82374;SDS011;72005;50.496;15.798;2023-10-09T02:31:00;4.13;;;2.90;;
82374;SDS011;72005;50.496;15.798;2023-10-09T02:33:44;4.07;;;2.80;;
82374;SDS011;72005;50.496;15.798;2023-10-09T02:36:10;5.32;;;2.58;;
82374;SDS011;72005;50.496;15.798;2023-10-09T02:38:38;4.68;;;2.70;;
82374;SDS011;72005;50.496;15.798;2023-10-09T02:41:05;4.13;;;2.72;;
82374;SDS011;72005;50.496;15.798;2023-10-09T02:43:32;4.63;;;2.78;;
82374;SDS011;72005;50.496;15.798;2023-10-09T02:46:31;5.63;;;2.58;;
82374;SDS011;72005;50.496;15.798;2023-10-09T02:49:01;4.15;;;2.58;;
82374;SDS011;72005;50.496;15.798;2023-10-09T02:51:32;4.05;;;2.50;;
82374;SDS011;72005;50.496;15.798;2023-10-09T02:53:59;4.97;;;2.70;;
82374;SDS011;72005;50.496;15.798;2023-10-09T02:56:33;3.92;;;2.50;;
82374;SDS011;72005;50.496;15.798;2023-10-09T02:59:06;3.42;;;2.58;;
82374;SDS011;72005;50.496;15.798;2023-10-09T03:01:33;4.97;;;2.97;;
82374;SDS011;72005;50.496;15.798;2023-10-09T03:04:01;5.90;;;2.88;;
82374;SDS011;72005;50.496;15.798;2023-10-09T03:06:27;4.45;;;2.75;;
82374;SDS011;72005;50.496;15.798;2023-10-09T03:08:58;3.42;;;2.45;;
82374;SDS011;72005;50.496;15.798;2023-10-09T03:11:24;5.10;;;3.22;;
82374;SDS011;72005;50.496;15.798;2023-10-09T03:13:52;5.55;;;2.90;;
82374;SDS011;72005;50.496;15.798;2023-10-09T03:16:18;9.32;;;3.10;;
82374;SDS011;72005;50.496;15.798;2023-10-09T03:18:52;5.10;;;3.00;;
82374;SDS011;72005;50.496;15.798;2023-10-09T03:21:18;5.07;;;2.83;;
82374;SDS011;72005;50.496;15.798;2023-10-09T03:23:46;4.97;;;2.88;;
82374;SDS011;72005;50.496;15.798;2023-10-09T03:26:18;3.38;;;2.63;;
82374;SDS011;72005;50.496;15.798;2023-10-09T03:28:46;3.63;;;2.50;;
82374;SDS011;72005;50.496;15.798;2023-10-09T03:31:12;5.72;;;2.67;;
82374;SDS011;72005;50.496;15.798;2023-10-09T03:33:38;4.05;;;2.60;;
82374;SDS011;72005;50.496;15.798;2023-10-09T03:36:05;3.95;;;2.38;;
82374;SDS011;72005;50.496;15.798;2023-10-09T03:38:37;3.33;;;2.25;;
82374;SDS011;72005;50.496;15.798;2023-10-09T03:41:05;5.03;;;2.22;;
82374;SDS011;72005;50.496;15.798;2023-10-09T03:43:33;3.28;;;2.65;;
82374;SDS011;72005;50.496;15.798;2023-10-09T03:46:03;4.15;;;2.50;;
82374;SDS011;72005;50.496;15.798;2023-10-09T03:48:30;3.13;;;2.30;;
82374;SDS011;72005;50.496;15.798;2023-10-09T03:51:01;4.32;;;2.30;;
82374;SDS011;72005;50.496;15.798;2023-10-09T03:53:47;2.72;;;2.10;;
82374;SDS011;72005;50.496;15.798;2023-10-09T03:56:13;4.25;;;2.08;;
82374;SDS011;72005;50.496;15.798;2023-10-09T03:58:42;2.58;;;1.90;;
82374;SDS011;72005;50.496;15.798;2023-10-09T04:01:10;3.65;;;1.85;;
82374;SDS011;72005;50.496;15.798;2023-10-09T04:04:05;4.00;;;1.90;;
82374;SDS011;72005;50.496;15.798;2023-10-09T04:06:32;3.38;;;1.90;;
82374;SDS011;72005;50.496;15.798;2023-10-09T04:11:40;2.75;;;1.88;;
82374;SDS011;72005;50.496;15.798;2023-10-09T04:14:14;3.78;;;1.80;;
82374;SDS011;72005;50.496;15.798;2023-10-09T04:16:58;2.67;;;1.50;;
82374;SDS011;72005;50.496;15.798;2023-10-09T04:19:34;2.08;;;1.90;;
82374;SDS011;72005;50.496;15.798;2023-10-09T04:22:13;3.92;;;1.63;;
82374;SDS011;72005;50.496;15.798;2023-10-09T04:24:52;2.28;;;1.88;;
82374;SDS011;72005;50.496;15.798;2023-10-09T04:27:17;3.55;;;2.13;;
82374;SDS011;72005;50.496;15.798;2023-10-09T04:29:52;2.55;;;2.00;;
82374;SDS011;72005;50.496;15.798;2023-10-09T04:32:19;2.67;;;1.95;;
82374;SDS011;72005;50.496;15.798;2023-10-09T04:34:46;3.00;;;1.80;;
82374;SDS011;72005;50.496;15.798;2023-10-09T04:37:14;3.90;;;1.92;;
82374;SDS011;72005;50.496;15.798;2023-10-09T04:39:43;2.60;;;1.80;;
82374;SDS011;72005;50.496;15.798;2023-10-09T04:42:36;5.60;;;2.28;;
82374;SDS011;72005;50.496;15.798;2023-10-09T04:45:03;3.15;;;2.00;;
82374;SDS011;72005;50.496;15.798;2023-10-09T04:47:31;3.17;;;1.83;;
82374;SDS011;72005;50.496;15.798;2023-10-09T04:50:09;4.85;;;2.65;;
82374;SDS011;72005;50.496;15.798;2023-10-09T04:52:40;2.33;;;1.73;;
82374;SDS011;72005;50.496;15.798;2023-10-09T04:55:06;3.63;;;1.98;;
82374;SDS011;72005;50.496;15.798;2023-10-09T04:57:39;3.13;;;1.85;;
82374;SDS011;72005;50.496;15.798;2023-10-09T05:00:09;3.92;;;1.80;;
82374;SDS011;72005;50.496;15.798;2023-10-09T05:02:55;7.75;;;2.13;;
82374;SDS011;72005;50.496;15.798;2023-10-09T05:05:32;3.15;;;2.00;;
82374;SDS011;72005;50.496;15.798;2023-10-09T05:07:58;1.90;;;1.73;;
82374;SDS011;72005;50.496;15.798;2023-10-09T05:10:42;5.22;;;2.10;;
82374;SDS011;72005;50.496;15.798;2023-10-09T05:13:26;2.17;;;1.83;;
82374;SDS011;72005;50.496;15.798;2023-10-09T05:18:53;6.00;;;2.28;;
82374;SDS011;72005;50.496;15.798;2023-10-09T05:21:35;4.03;;;2.22;;
82374;SDS011;72005;50.496;15.798;2023-10-09T05:24:12;3.00;;;2.08;;
82374;SDS011;72005;50.496;15.798;2023-10-09T05:26:39;4.45;;;1.95;;
82374;SDS011;72005;50.496;15.798;2023-10-09T05:29:22;2.15;;;1.90;;
82374;SDS011;72005;50.496;15.798;2023-10-09T05:31:49;2.70;;;1.80;;
82374;SDS011;72005;50.496;15.798;2023-10-09T05:34:31;3.50;;;2.15;;
82374;SDS011;72005;50.496;15.798;2023-10-09T05:37:05;2.67;;;1.98;;
82374;SDS011;72005;50.496;15.798;2023-10-09T05:39:48;2.45;;;1.83;;
82374;SDS011;72005;50.496;15.798;2023-10-09T05:42:26;2.38;;;1.58;;
82374;SDS011;72005;50.496;15.798;2023-10-09T05:45:03;2.00;;;1.70;;
82374;SDS011;72005;50.496;15.798;2023-10-09T05:47:48;3.28;;;2.05;;
82374;SDS011;72005;50.496;15.798;2023-10-09T05:50:28;2.13;;;1.52;;
82374;SDS011;72005;50.496;15.798;2023-10-09T05:52:55;2.63;;;2.05;;
82374;SDS011;72005;50.496;15.798;2023-10-09T05:55:30;3.63;;;1.77;;
82374;SDS011;72005;50.496;15.798;2023-10-09T05:58:15;2.28;;;2.08;;
82374;SDS011;72005;50.496;15.798;2023-10-09T06:00:59;3.70;;;2.22;;
82374;SDS011;72005;50.496;15.798;2023-10-09T06:04:04;3.72;;;1.85;;
82374;SDS011;72005;50.496;15.798;2023-10-09T06:06:40;3.35;;;2.00;;
82374;SDS011;72005;50.496;15.798;2023-10-09T06:09:11;4.38;;;2.28;;
82374;SDS011;72005;50.496;15.798;2023-10-09T06:11:38;3.00;;;1.92;;
82374;SDS011;72005;50.496;15.798;2023-10-09T06:14:05;3.17;;;2.00;;
82374;SDS011;72005;50.496;15.798;2023-10-09T06:16:34;2.72;;;1.80;;
82374;SDS011;72005;50.496;15.798;2023-10-09T06:19:22;3.70;;;2.15;;
82374;SDS011;72005;50.496;15.798;2023-10-09T06:21:47;3.40;;;1.98;;
82374;SDS011;72005;50.496;15.798;2023-10-09T06:24:30;3.38;;;2.03;;
82374;SDS011;72005;50.496;15.798;2023-10-09T06:27:06;4.85;;;2.95;;
82374;SDS011;72005;50.496;15.798;2023-10-09T06:29:35;2.90;;;2.25;;
82374;SDS011;72005;50.496;15.798;2023-10-09T06:32:16;3.80;;;2.20;;
82374;SDS011;72005;50.496;15.798;2023-10-09T06:34:49;3.67;;;2.65;;
82374;SDS011;72005;50.496;15.798;2023-10-09T06:37:43;7.32;;;3.22;;
82374;SDS011;72005;50.496;15.798;2023-10-09T06:40:47;3.83;;;2.35;;
82374;SDS011;72005;50.496;15.798;2023-10-09T06:43:31;3.58;;;2.40;;
82374;SDS011;72005;50.496;15.798;2023-10-09T06:46:02;2.92;;;2.00;;
82374;SDS011;72005;50.496;15.798;2023-10-09T06:49:00;6.03;;;2.78;;
82374;SDS011;72005;50.496;15.798;2023-10-09T06:51:40;2.53;;;1.88;;
82374;SDS011;72005;50.496;15.798;2023-10-09T06:54:06;4.10;;;2.05;;
82374;SDS011;72005;50.496;15.798;2023-10-09T06:56:35;3.63;;;2.08;;
82374;SDS011;72005;50.496;15.798;2023-10-09T06:59:06;4.38;;;2.22;;
82374;SDS011;72005;50.496;15.798;2023-10-09T07:01:41;3.92;;;2.20;;
82374;SDS011;72005;50.496;15.798;2023-10-09T07:04:12;3.13;;;2.08;;
82374;SDS011;72005;50.496;15.798;2023-10-09T07:07:05;3.17;;;2.05;;
82374;SDS011;72005;50.496;15.798;2023-10-09T07:09:49;2.20;;;2.00;;
82374;SDS011;72005;50.496;15.798;2023-10-09T07:12:33;5.70;;;2.50;;
82374;SDS011;72005;50.496;15.798;2023-10-09T07:15:07;2.97;;;2.03;;
82374;SDS011;72005;50.496;15.798;2023-10-09T07:17:34;2.95;;;2.00;;
82374;SDS011;72005;50.496;15.798;2023-10-09T07:19:59;3.95;;;2.25;;
82374;SDS011;72005;50.496;15.798;2023-10-09T07:23:01;4.20;;;2.35;;
82374;SDS011;72005;50.496;15.798;2023-10-09T07:25:40;6.05;;;2.50;;
82374;SDS011;72005;50.496;15.798;2023-10-09T07:28:07;3.47;;;2.00;;
82374;SDS011;72005;50.496;15.798;2023-10-09T07:30:46;3.30;;;2.83;;
82374;SDS011;72005;50.496;15.798;2023-10-09T07:33:12;7.43;;;5.07;;
82374;SDS011;72005;50.496;15.798;2023-10-09T07:35:40;9.55;;;5.78;;
82374;SDS011;72005;50.496;15.798;2023-10-09T07:38:17;10.98;;;5.63;;
82374;SDS011;72005;50.496;15.798;2023-10-09T07:40:54;8.85;;;5.85;;
82374;SDS011;72005;50.496;15.798;2023-10-09T07:43:36;5.90;;;3.65;;
82374;SDS011;72005;50.496;15.798;2023-10-09T07:49:00;4.68;;;3.13;;
82374;SDS011;72005;50.496;15.798;2023-10-09T07:51:47;10.98;;;8.25;;
82374;SDS011;72005;50.496;15.798;2023-10-09T07:54:13;9.65;;;6.55;;
82374;SDS011;72005;50.496;15.798;2023-10-09T07:56:57;5.05;;;3.63;;
82374;SDS011;72005;50.496;15.798;2023-10-09T07:59:34;4.40;;;2.97;;
82374;SDS011;72005;50.496;15.798;2023-10-09T08:02:20;6.05;;;3.33;;
82374;SDS011;72005;50.496;15.798;2023-10-09T08:05:00;7.85;;;4.38;;
82374;SDS011;72005;50.496;15.798;2023-10-09T08:07:44;5.50;;;3.70;;
82374;SDS011;72005;50.496;15.798;2023-10-09T08:10:20;4.55;;;2.97;;
82374;SDS011;72005;50.496;15.798;2023-10-09T08:12:46;5.05;;;3.55;;
82374;SDS011;72005;50.496;15.798;2023-10-09T08:15:12;8.77;;;3.50;;
82374;SDS011;72005;50.496;15.798;2023-10-09T08:17:56;4.00;;;2.85;;
82374;SDS011;72005;50.496;15.798;2023-10-09T08:20:29;4.07;;;2.88;;
82374;SDS011;72005;50.496;15.798;2023-10-09T08:23:16;4.32;;;3.03;;
82374;SDS011;72005;50.496;15.798;2023-10-09T08:26:03;3.78;;;2.60;;
82374;SDS011;72005;50.496;15.798;2023-10-09T08:31:11;7.03;;;4.07;;
82374;SDS011;72005;50.496;15.798;2023-10-09T08:33:45;5.53;;;4.03;;
82374;SDS011;72005;50.496;15.798;2023-10-09T08:36:22;6.20;;;4.25;;
82374;SDS011;72005;50.496;15.798;2023-10-09T08:38:53;7.28;;;3.63;;
82374;SDS011;72005;50.496;15.798;2023-10-09T08:41:27;4.20;;;2.80;;
82374;SDS011;72005;50.496;15.798;2023-10-09T08:43:56;5.25;;;3.42;;
82374;SDS011;72005;50.496;15.798;2023-10-09T08:46:24;3.88;;;2.90;;
82374;SDS011;72005;50.496;15.798;2023-10-09T08:48:57;5.65;;;2.92;;
82374;SDS011;72005;50.496;15.798;2023-10-09T08:51:34;6.00;;;2.50;;
82374;SDS011;72005;50.496;15.798;2023-10-09T08:54:00;4.38;;;2.78;;
82374;SDS011;72005;50.496;15.798;2023-10-09T08:56:26;7.68;;;3.55;;
82374;SDS011;72005;50.496;15.798;2023-10-09T08:58:54;7.45;;;4.05;;
82374;SDS011;72005;50.496;15.798;2023-10-09T09:01:21;9.38;;;4.95;;
82374;SDS011;72005;50.496;15.798;2023-10-09T09:03:50;7.50;;;4.45;;
82374;SDS011;72005;50.496;15.798;2023-10-09T09:06:18;8.77;;;4.50;;
82374;SDS011;72005;50.496;15.798;2023-10-09T09:08:44;6.15;;;3.90;;
82374;SDS011;72005;50.496;15.798;2023-10-09T09:11:12;7.70;;;4.45;;
82374;SDS011;72005;50.496;15.798;2023-10-09T09:13:43;6.60;;;4.25;;
82374;SDS011;72005;50.496;15.798;2023-10-09T09:16:16;15.13;;;9.70;;
82374;SDS011;72005;50.496;15.798;2023-10-09T09:18:53;7.03;;;4.43;;
82374;SDS011;72005;50.496;15.798;2023-10-09T09:21:39;7.32;;;4.00;;
82374;SDS011;72005;50.496;15.798;2023-10-09T09:24:11;5.72;;;4.28;;
82374;SDS011;72005;50.496;15.798;2023-10-09T09:27:01;6.05;;;4.28;;
82374;SDS011;72005;50.496;15.798;2023-10-09T09:29:48;13.05;;;9.55;;
82374;SDS011;72005;50.496;15.798;2023-10-09T09:32:28;9.65;;;7.40;;
82374;SDS011;72005;50.496;15.798;2023-10-09T09:35:03;8.10;;;6.43;;
82374;SDS011;72005;50.496;15.798;2023-10-09T09:37:32;7.03;;;5.10;;
82374;SDS011;72005;50.496;15.798;2023-10-09T09:40:07;6.82;;;4.90;;
82374;SDS011;72005;50.496;15.798;2023-10-09T09:42:53;7.65;;;4.85;;
82374;SDS011;72005;50.496;15.798;2023-10-09T09:45:22;6.80;;;4.43;;
82374;SDS011;72005;50.496;15.798;2023-10-09T09:47:50;8.48;;;5.47;;
82374;SDS011;72005;50.496;15.798;2023-10-09T09:50:19;7.43;;;5.07;;
82374;SDS011;72005;50.496;15.798;2023-10-09T09:52:54;6.90;;;5.05;;
82374;SDS011;72005;50.496;15.798;2023-10-09T09:55:24;8.13;;;5.95;;
82374;SDS011;72005;50.496;15.798;2023-10-09T09:57:56;9.77;;;5.55;;
82374;SDS011;72005;50.496;15.798;2023-10-09T10:00:24;7.43;;;5.25;;
82374;SDS011;72005;50.496;15.798;2023-10-09T10:02:57;6.40;;;4.88;;
82374;SDS011;72005;50.496;15.798;2023-10-09T10:05:27;4.45;;;3.67;;
82374;SDS011;72005;50.496;15.798;2023-10-09T10:07:58;6.82;;;4.63;;
82374;SDS011;72005;50.496;15.798;2023-10-09T10:10:34;6.57;;;4.07;;
82374;SDS011;72005;50.496;15.798;2023-10-09T10:13:00;6.47;;;3.83;;
82374;SDS011;72005;50.496;15.798;2023-10-09T10:18:23;9.52;;;4.05;;
82374;SDS011;72005;50.496;15.798;2023-10-09T10:24:00;4.68;;;3.97;;
82374;SDS011;72005;50.496;15.798;2023-10-09T10:26:35;8.80;;;4.75;;
82374;SDS011;72005;50.496;15.798;2023-10-09T10:29:14;7.15;;;4.85;;
82374;SDS011;72005;50.496;15.798;2023-10-09T10:34:17;10.05;;;4.80;;
82374;SDS011;72005;50.496;15.798;2023-10-09T10:36:49;8.65;;;5.53;;
82374;SDS011;72005;50.496;15.798;2023-10-09T10:39:26;6.50;;;5.10;;
82374;SDS011;72005;50.496;15.798;2023-10-09T10:42:10;9.05;;;6.10;;
82374;SDS011;72005;50.496;15.798;2023-10-09T10:45:02;9.02;;;6.20;;
82374;SDS011;72005;50.496;15.798;2023-10-09T10:47:49;7.60;;;5.95;;
82374;SDS011;72005;50.496;15.798;2023-10-09T10:50:17;8.18;;;6.43;;
82374;SDS011;72005;50.496;15.798;2023-10-09T10:53:13;9.65;;;6.55;;
82374;SDS011;72005;50.496;15.798;2023-10-09T10:56:02;14.80;;;7.75;;
82374;SDS011;72005;50.496;15.798;2023-10-09T10:58:40;10.10;;;7.15;;
82374;SDS011;72005;50.496;15.798;2023-10-09T11:01:19;9.38;;;6.53;;
82374;SDS011;72005;50.496;15.798;2023-10-09T11:03:49;9.93;;;6.53;;
82374;SDS011;72005;50.496;15.798;2023-10-09T11:06:28;7.15;;;6.25;;
82374;SDS011;72005;50.496;15.798;2023-10-09T11:09:04;10.35;;;6.38;;
82374;SDS011;72005;50.496;15.798;2023-10-09T11:11:36;10.50;;;7.20;;
82374;SDS011;72005;50.496;15.798;2023-10-09T11:14:08;11.63;;;7.68;;
82374;SDS011;72005;50.496;15.798;2023-10-09T11:16:39;9.68;;;6.88;;
82374;SDS011;72005;50.496;15.798;2023-10-09T11:19:13;18.92;;;11.15;;
82374;SDS011;72005;50.496;15.798;2023-10-09T11:21:53;12.35;;;8.35;;
82374;SDS011;72005;50.496;15.798;2023-10-09T11:24:32;13.30;;;8.45;;
82374;SDS011;72005;50.496;15.798;2023-10-09T11:27:01;16.40;;;8.55;;
82374;SDS011;72005;50.496;15.798;2023-10-09T11:29:34;18.63;;;9.45;;
82374;SDS011;72005;50.496;15.798;2023-10-09T11:32:19;14.18;;;7.97;;
82374;SDS011;72005;50.496;15.798;2023-10-09T11:34:49;12.98;;;7.05;;
82374;SDS011;72005;50.496;15.798;2023-10-09T11:37:20;8.75;;;6.25;;
82374;SDS011;72005;50.496;15.798;2023-10-09T11:39:56;8.93;;;5.93;;
82374;SDS011;72005;50.496;15.798;2023-10-09T11:42:29;8.63;;;6.05;;
82374;SDS011;72005;50.496;15.798;2023-10-09T11:45:04;8.77;;;5.90;;
82374;SDS011;72005;50.496;15.798;2023-10-09T11:47:49;8.20;;;5.60;;
82374;SDS011;72005;50.496;15.798;2023-10-09T11:50:44;9.57;;;6.10;;
82374;SDS011;72005;50.496;15.798;2023-10-09T11:53:17;15.07;;;9.10;;
82374;SDS011;72005;50.496;15.798;2023-10-09T11:55:50;14.10;;;8.88;;
82374;SDS011;72005;50.496;15.798;2023-10-09T11:58:18;13.75;;;8.27;;
82374;SDS011;72005;50.496;15.798;2023-10-09T12:00:54;12.05;;;7.50;;
82374;SDS011;72005;50.496;15.798;2023-10-09T12:03:29;13.55;;;7.20;;
82374;SDS011;72005;50.496;15.798;2023-10-09T12:05:57;20.58;;;11.75;;
82374;SDS011;72005;50.496;15.798;2023-10-09T12:08:30;24.43;;;15.17;;
82374;SDS011;72005;50.496;15.798;2023-10-09T12:10:59;20.27;;;12.80;;
82374;SDS011;72005;50.496;15.798;2023-10-09T12:13:29;17.13;;;10.93;;
82374;SDS011;72005;50.496;15.798;2023-10-09T12:15:56;13.32;;;7.03;;
82374;SDS011;72005;50.496;15.798;2023-10-09T12:18:23;12.02;;;7.93;;
82374;SDS011;72005;50.496;15.798;2023-10-09T12:20:49;9.13;;;5.90;;
82374;SDS011;72005;50.496;15.798;2023-10-09T12:23:19;8.75;;;5.68;;
82374;SDS011;72005;50.496;15.798;2023-10-09T12:25:49;5.53;;;4.10;;
82374;SDS011;72005;50.496;15.798;2023-10-09T12:28:16;5.88;;;4.20;;
82374;SDS011;72005;50.496;15.798;2023-10-09T12:30:49;5.00;;;3.80;;
82374;SDS011;72005;50.496;15.798;2023-10-09T12:33:18;4.93;;;3.65;;
82374;SDS011;72005;50.496;15.798;2023-10-09T12:35:45;9.00;;;5.13;;
82374;SDS011;72005;50.496;15.798;2023-10-09T12:38:13;5.50;;;4.38;;
82374;SDS011;72005;50.496;15.798;2023-10-09T12:40:44;5.53;;;4.18;;
82374;SDS011;72005;50.496;15.798;2023-10-09T12:43:17;7.32;;;4.30;;
82374;SDS011;72005;50.496;15.798;2023-10-09T12:45:47;6.57;;;4.25;;
82374;SDS011;72005;50.496;15.798;2023-10-09T12:48:13;6.10;;;4.55;;
82374;SDS011;72005;50.496;15.798;2023-10-09T12:50:40;4.80;;;3.55;;
82374;SDS011;72005;50.496;15.798;2023-10-09T12:53:10;4.65;;;3.70;;
82374;SDS011;72005;50.496;15.798;2023-10-09T12:55:39;4.93;;;3.30;;
82374;SDS011;72005;50.496;15.798;2023-10-09T12:58:06;4.80;;;3.70;;
82374;SDS011;72005;50.496;15.798;2023-10-09T13:00:37;5.85;;;4.20;;
82374;SDS011;72005;50.496;15.798;2023-10-09T13:03:10;9.38;;;5.10;;
82374;SDS011;72005;50.496;15.798;2023-10-09T13:05:43;10.20;;;5.88;;
82374;SDS011;72005;50.496;15.798;2023-10-09T13:08:18;15.88;;;11.05;;
82374;SDS011;72005;50.496;15.798;2023-10-09T13:10:49;15.55;;;11.32;;
82374;SDS011;72005;50.496;15.798;2023-10-09T13:13:26;14.68;;;9.27;;
82374;SDS011;72005;50.496;15.798;2023-10-09T13:16:05;7.63;;;5.32;;
82374;SDS011;72005;50.496;15.798;2023-10-09T13:18:39;6.47;;;4.60;;
82374;SDS011;72005;50.496;15.798;2023-10-09T13:21:05;5.53;;;4.07;;
82374;SDS011;72005;50.496;15.798;2023-10-09T13:23:31;4.63;;;3.40;;
82374;SDS011;72005;50.496;15.798;2023-10-09T13:26:07;5.88;;;3.67;;
82374;SDS011;72005;50.496;15.798;2023-10-09T13:28:56;5.10;;;3.97;;
82374;SDS011;72005;50.496;15.798;2023-10-09T13:31:23;5.97;;;3.83;;
82374;SDS011;72005;50.496;15.798;2023-10-09T13:33:54;7.32;;;4.30;;
82374;SDS011;72005;50.496;15.798;2023-10-09T13:36:20;6.68;;;3.83;;
82374;SDS011;72005;50.496;15.798;2023-10-09T13:38:56;6.88;;;3.72;;
82374;SDS011;72005;50.496;15.798;2023-10-09T13:41:22;5.20;;;3.83;;
82374;SDS011;72005;50.496;15.798;2023-10-09T13:43:55;5.72;;;3.60;;
82374;SDS011;72005;50.496;15.798;2023-10-09T13:46:22;5.15;;;3.78;;
82374;SDS011;72005;50.496;15.798;2023-10-09T13:48:49;5.18;;;3.78;;
82374;SDS011;72005;50.496;15.798;2023-10-09T13:51:17;5.05;;;3.92;;
82374;SDS011;72005;50.496;15.798;2023-10-09T13:53:47;7.35;;;4.05;;
82374;SDS011;72005;50.496;15.798;2023-10-09T13:56:19;5.95;;;4.05;;
82374;SDS011;72005;50.496;15.798;2023-10-09T13:58:47;5.37;;;4.37;;
82374;SDS011;72005;50.496;15.798;2023-10-09T14:01:16;6.00;;;4.07;;
82374;SDS011;72005;50.496;15.798;2023-10-09T14:03:58;6.72;;;4.30;;
82374;SDS011;72005;50.496;15.798;2023-10-09T14:06:25;5.35;;;4.35;;
82374;SDS011;72005;50.496;15.798;2023-10-09T14:08:58;6.43;;;4.70;;
82374;SDS011;72005;50.496;15.798;2023-10-09T14:11:25;6.43;;;4.18;;
82374;SDS011;72005;50.496;15.798;2023-10-09T14:13:52;5.15;;;3.38;;
82374;SDS011;72005;50.496;15.798;2023-10-09T14:16:18;4.90;;;3.70;;
82374;SDS011;72005;50.496;15.798;2023-10-09T14:18:50;4.80;;;3.50;;
82374;SDS011;72005;50.496;15.798;2023-10-09T14:21:21;5.80;;;3.90;;
82374;SDS011;72005;50.496;15.798;2023-10-09T14:23:47;5.05;;;3.95;;
82374;SDS011;72005;50.496;15.798;2023-10-09T14:26:13;5.72;;;3.70;;
82374;SDS011;72005;50.496;15.798;2023-10-09T14:28:39;5.38;;;3.58;;
82374;SDS011;72005;50.496;15.798;2023-10-09T14:31:08;5.78;;;4.10;;
82374;SDS011;72005;50.496;15.798;2023-10-09T14:33:37;4.00;;;3.53;;
82374;SDS011;72005;50.496;15.798;2023-10-09T14:36:05;6.18;;;4.03;;
82374;SDS011;72005;50.496;15.798;2023-10-09T14:38:33;4.45;;;3.55;;
82374;SDS011;72005;50.496;15.798;2023-10-09T14:41:03;5.68;;;3.80;;
82374;SDS011;72005;50.496;15.798;2023-10-09T14:43:32;5.65;;;4.00;;
82374;SDS011;72005;50.496;15.798;2023-10-09T14:45:59;4.60;;;3.70;;
82374;SDS011;72005;50.496;15.798;2023-10-09T14:48:25;5.43;;;3.78;;
82374;SDS011;72005;50.496;15.798;2023-10-09T14:50:54;3.95;;;3.50;;
82374;SDS011;72005;50.496;15.798;2023-10-09T14:53:20;4.78;;;3.38;;
82374;SDS011;72005;50.496;15.798;2023-10-09T14:55:53;5.13;;;3.63;;
82374;SDS011;72005;50.496;15.798;2023-10-09T14:58:20;4.45;;;3.53;;
82374;SDS011;72005;50.496;15.798;2023-10-09T15:00:45;3.45;;;3.05;;
82374;SDS011;72005;50.496;15.798;2023-10-09T15:03:12;5.30;;;3.33;;
82374;SDS011;72005;50.496;15.798;2023-10-09T15:05:42;4.32;;;3.10;;
82374;SDS011;72005;50.496;15.798;2023-10-09T15:08:09;4.47;;;3.30;;
82374;SDS011;72005;50.496;15.798;2023-10-09T15:10:45;5.10;;;3.20;;
82374;SDS011;72005;50.496;15.798;2023-10-09T15:13:15;3.63;;;3.28;;
82374;SDS011;72005;50.496;15.798;2023-10-09T15:15:43;4.07;;;3.28;;
82374;SDS011;72005;50.496;15.798;2023-10-09T15:18:11;4.85;;;3.50;;
82374;SDS011;72005;50.496;15.798;2023-10-09T15:20:39;4.70;;;4.00;;
82374;SDS011;72005;50.496;15.798;2023-10-09T15:23:09;3.75;;;3.17;;
82374;SDS011;72005;50.496;15.798;2023-10-09T15:25:34;4.88;;;3.65;;
82374;SDS011;72005;50.496;15.798;2023-10-09T15:28:05;4.18;;;3.28;;
82374;SDS011;72005;50.496;15.798;2023-10-09T15:30:37;4.00;;;3.60;;